createdAt,value
2019-04-28T13:44:49.825Z,3.63
2019-04-28T13:47:22.036Z,3.43
2019-04-28T13:49:54.660Z,3.03
2019-04-28T13:52:25.483Z,3.13
2019-04-28T13:54:58.463Z,3.67
2019-04-28T13:57:29.364Z,3.00
2019-04-28T14:00:04.596Z,2.83
2019-04-28T14:02:52.039Z,3.80
2019-04-28T14:05:41.303Z,2.73
2019-04-28T14:08:13.505Z,2.70
2019-04-28T14:10:45.333Z,3.07
2019-04-28T14:13:16.608Z,2.73
2019-04-28T14:15:48.513Z,2.87
2019-04-28T14:18:20.479Z,2.60
2019-04-28T14:20:53.152Z,2.67
2019-04-28T14:23:23.886Z,2.90
2019-04-28T14:25:54.861Z,2.23
2019-04-28T14:28:26.089Z,2.37
2019-04-28T14:31:00.685Z,2.80
2019-04-28T14:33:32.580Z,2.67
2019-04-28T14:36:03.366Z,2.37
2019-04-28T14:38:34.508Z,2.03
2019-04-28T14:41:07.247Z,3.07
2019-04-28T14:43:39.938Z,3.37
2019-04-28T14:46:11.612Z,3.80
2019-04-28T14:48:43.800Z,3.87
2019-04-28T14:51:14.803Z,3.00
2019-04-28T14:53:45.500Z,3.87
2019-04-28T14:56:16.140Z,4.33
2019-04-28T14:58:47.486Z,3.87
2019-04-28T15:01:32.126Z,3.93
2019-04-28T15:04:04.647Z,4.20
2019-04-28T15:06:40.017Z,4.17
2019-04-28T15:09:29.012Z,4.33
2019-04-28T15:12:01.608Z,4.23
2019-04-28T15:14:32.695Z,4.93
2019-04-28T15:17:03.744Z,4.97
2019-04-28T15:19:34.560Z,4.87
2019-04-28T15:24:41.923Z,4.80
2019-04-28T15:27:12.929Z,4.93
2019-04-28T15:29:43.767Z,5.60
2019-04-28T15:32:15.046Z,5.53
2019-04-28T15:34:45.880Z,6.37
2019-04-28T15:37:16.640Z,5.70
2019-04-28T15:39:47.670Z,6.23
2019-04-28T15:42:18.646Z,5.77
2019-04-28T15:44:49.884Z,5.67
2019-04-28T15:47:20.882Z,6.40
2019-04-28T15:49:53.980Z,6.27
2019-04-28T15:52:25.537Z,6.60
2019-04-28T15:54:56.831Z,5.77
2019-04-28T15:57:27.850Z,6.17
2019-04-28T16:00:00.156Z,6.23
2019-04-28T16:02:31.241Z,5.63
2019-04-28T16:05:02.402Z,6.30
2019-04-28T16:07:33.754Z,6.00
2019-04-28T16:10:06.728Z,5.80
2019-04-28T16:12:38.374Z,5.93
2019-04-28T16:15:09.880Z,5.73
2019-04-28T16:17:42.247Z,5.57
2019-04-28T16:20:14.390Z,6.10
2019-04-28T16:22:45.358Z,5.43
2019-04-28T16:25:16.593Z,6.20
2019-04-28T16:27:48.255Z,6.00
2019-04-28T16:30:19.836Z,5.87
2019-04-28T16:32:53.464Z,5.77
2019-04-28T16:35:25.393Z,6.23
2019-04-28T16:37:56.211Z,5.90
2019-04-28T16:40:29.046Z,6.10
2019-04-28T16:43:07.899Z,6.10
2019-04-28T16:45:40.326Z,6.17
2019-04-28T16:48:14.152Z,5.93
2019-04-28T16:50:45.836Z,6.10
2019-04-28T16:53:17.271Z,6.00
2019-04-28T16:55:50.151Z,6.50
2019-04-28T16:58:31.799Z,5.80
2019-04-28T17:01:12.340Z,5.50
2019-04-28T17:03:43.963Z,5.13
2019-04-28T17:06:14.945Z,4.93
2019-04-28T17:08:46.179Z,6.33
2019-04-28T17:11:17.330Z,5.40
2019-04-28T17:13:48.308Z,5.50
2019-04-28T17:16:19.877Z,5.07
2019-04-28T17:18:50.793Z,5.43
2019-04-28T17:21:22.328Z,4.87
2019-04-28T17:23:54.555Z,5.03
2019-04-28T17:26:25.595Z,5.57
2019-04-28T17:28:56.643Z,5.87
2019-04-28T17:31:28.107Z,7.00
2019-04-28T17:33:59.622Z,5.93
2019-04-28T17:36:30.570Z,5.80
2019-04-28T17:39:01.546Z,5.23
2019-04-28T17:41:35.017Z,5.60
2019-04-28T17:44:06.256Z,5.70
2019-04-28T17:46:37.340Z,5.20
2019-04-28T17:49:08.949Z,5.77
2019-04-28T17:51:41.492Z,5.10
2019-04-28T17:54:12.385Z,6.17
2019-04-28T17:56:43.776Z,6.80
2019-04-28T17:59:16.313Z,5.50
2019-04-28T18:01:53.809Z,5.77
2019-04-28T18:04:35.890Z,5.80
2019-04-28T18:07:10.576Z,5.60
2019-04-28T18:09:43.386Z,4.93
2019-04-28T18:12:14.578Z,5.20
2019-04-28T18:14:47.698Z,6.30
2019-04-28T18:17:23.325Z,5.27
2019-04-28T18:19:54.732Z,6.17
2019-04-28T18:22:26.237Z,5.90
2019-04-28T18:24:58.587Z,5.77
2019-04-28T18:27:30.387Z,5.93
2019-04-28T18:30:01.834Z,5.47
2019-04-28T18:32:41.858Z,5.33
2019-04-28T18:35:15.012Z,5.33
2019-04-28T18:38:05.794Z,5.17
2019-04-28T18:40:45.008Z,5.53
2019-04-28T18:43:35.908Z,5.00
2019-04-28T18:46:06.990Z,4.60
2019-04-28T18:48:39.424Z,5.17
2019-04-28T18:51:11.159Z,5.43
2019-04-28T18:53:44.523Z,5.83
2019-04-28T18:56:14.760Z,5.60
2019-04-28T18:58:46.447Z,5.13
2019-04-28T19:01:36.872Z,5.90
2019-04-28T19:04:09.250Z,6.00
2019-04-28T19:06:40.503Z,5.57
2019-04-28T19:09:19.200Z,5.50
2019-04-28T19:12:08.397Z,5.80
2019-04-28T19:14:41.020Z,6.00
2019-04-28T19:17:17.695Z,5.13
2019-04-28T19:19:49.626Z,5.40
2019-04-28T19:22:20.505Z,6.10
2019-04-28T19:24:53.352Z,5.97
2019-04-28T19:27:24.592Z,6.77
2019-04-28T19:29:56.478Z,6.10
2019-04-28T19:32:28.258Z,5.47
2019-04-28T19:35:00.184Z,5.87
2019-04-28T19:37:32.246Z,5.97
2019-04-28T19:40:03.433Z,5.07
2019-04-28T19:42:36.054Z,4.97
2019-04-28T19:45:12.010Z,5.10
2019-04-28T19:47:42.962Z,5.37
2019-04-28T19:50:14.786Z,4.40
2019-04-28T19:52:46.150Z,4.77
2019-04-28T19:55:20.135Z,3.80
2019-04-28T19:58:11.317Z,4.37
2019-04-28T20:00:45.099Z,4.40
2019-04-28T20:03:17.953Z,4.67
2019-04-28T20:05:49.104Z,4.13
2019-04-28T20:08:21.384Z,4.07
2019-04-28T20:10:52.418Z,4.70
2019-04-28T20:13:23.210Z,5.97
2019-04-28T20:15:54.134Z,5.37
2019-04-28T20:18:24.937Z,5.33
2019-04-28T20:20:55.748Z,4.47
2019-04-28T20:23:26.393Z,5.77
2019-04-28T20:25:57.192Z,4.70
2019-04-28T20:28:28.099Z,5.03
2019-04-28T20:30:59.147Z,7.03
2019-04-28T20:33:30.222Z,7.27
2019-04-28T20:36:03.081Z,4.53
2019-04-28T20:38:34.452Z,5.70
2019-04-28T20:41:09.547Z,4.40
2019-04-28T20:43:40.464Z,4.13
2019-04-28T20:46:11.311Z,4.87
2019-04-28T20:48:42.022Z,5.17
2019-04-28T20:51:12.807Z,4.83
2019-04-28T20:53:44.443Z,4.23
2019-04-28T20:56:15.868Z,4.57
2019-04-28T20:58:47.042Z,4.23
2019-04-28T21:01:19.070Z,3.53
2019-04-28T21:03:50.152Z,4.60
2019-04-28T21:06:20.919Z,4.20
2019-04-28T21:08:53.357Z,4.30
2019-04-28T21:11:24.731Z,4.63
2019-04-28T21:13:55.618Z,4.80
2019-04-28T21:16:27.310Z,4.10
2019-04-28T21:18:58.814Z,4.90
2019-04-28T21:21:29.862Z,5.80
2019-04-28T21:24:01.064Z,4.17
2019-04-28T21:26:31.930Z,4.47
2019-04-28T21:29:02.979Z,3.97
2019-04-28T21:31:33.541Z,4.73
2019-04-28T21:34:04.393Z,4.80
2019-04-28T21:36:35.340Z,4.70
2019-04-28T21:39:09.047Z,4.70
2019-04-28T21:41:41.134Z,4.97
2019-04-28T21:44:30.884Z,5.27
2019-04-28T21:47:21.940Z,4.93
2019-04-28T21:49:53.006Z,6.03
2019-04-28T21:52:24.304Z,6.07
2019-04-28T21:54:56.282Z,5.83
2019-04-28T21:57:27.384Z,5.80
2019-04-28T21:59:58.179Z,5.93
2019-04-28T22:02:31.840Z,5.50
2019-04-28T22:05:03.092Z,5.37
2019-04-28T22:07:33.929Z,5.50
2019-04-28T22:10:06.921Z,5.87
2019-04-28T22:12:37.782Z,6.43
2019-04-28T22:15:08.818Z,5.37
2019-04-28T22:17:39.860Z,5.90
2019-04-28T22:20:10.680Z,6.20
2019-04-28T22:22:41.809Z,6.00
2019-04-28T22:25:14.408Z,5.80
2019-04-28T22:27:45.220Z,5.77
2019-04-28T22:30:16.307Z,6.40
2019-04-28T22:32:47.436Z,6.53
2019-04-28T22:35:18.284Z,5.97
2019-04-28T22:37:49.708Z,5.73
2019-04-28T22:40:20.600Z,5.43
2019-04-28T22:42:51.328Z,6.57
2019-04-28T22:45:22.395Z,6.67
2019-04-28T22:47:53.408Z,7.37
2019-04-28T22:50:42.390Z,6.50
2019-04-28T22:53:15.568Z,6.27
2019-04-28T22:55:53.202Z,6.73
2019-04-28T22:58:26.048Z,6.83
2019-04-28T23:01:15.666Z,6.23
2019-04-28T23:03:57.518Z,5.87
2019-04-28T23:06:29.794Z,6.33
2019-04-28T23:09:01.265Z,6.10
2019-04-28T23:11:34.221Z,6.50
2019-04-28T23:14:05.221Z,7.10
2019-04-28T23:16:36.257Z,6.47
2019-04-28T23:19:08.941Z,8.07
2019-04-28T23:21:44.296Z,7.00
2019-04-28T23:24:15.586Z,7.03
2019-04-28T23:26:46.670Z,6.70
2019-04-28T23:29:18.119Z,6.93
2019-04-28T23:31:49.194Z,7.00
2019-04-28T23:34:20.047Z,7.83
2019-04-28T23:36:50.928Z,9.27
2019-04-28T23:39:22.495Z,8.57
2019-04-28T23:42:04.041Z,6.77
2019-04-28T23:44:34.620Z,9.00
2019-04-28T23:47:07.391Z,8.73
2019-04-28T23:49:38.548Z,7.70
2019-04-28T23:52:27.312Z,8.17
2019-04-28T23:54:59.576Z,8.33
2019-04-28T23:57:30.317Z,8.17
